sensor_id;sensor_type;location;lat;lon;timestamp;P1;durP1;ratioP1;P2;durP2;ratioP2
25854;SDS011;13680;49.936;11.344;2023-05-07T00:00:37;10.38;;;6.30;;
25854;SDS011;13680;49.936;11.344;2023-05-07T00:03:02;7.65;;;6.15;;
25854;SDS011;13680;49.936;11.344;2023-05-07T00:05:28;14.20;;;6.78;;
25854;SDS011;13680;49.936;11.344;2023-05-07T00:07:53;8.52;;;6.72;;
25854;SDS011;13680;49.936;11.344;2023-05-07T00:10:18;11.35;;;6.07;;
25854;SDS011;13680;49.936;11.344;2023-05-07T00:12:44;7.85;;;6.35;;
25854;SDS011;13680;49.936;11.344;2023-05-07T00:15:10;11.93;;;6.60;;
25854;SDS011;13680;49.936;11.344;2023-05-07T00:17:36;10.60;;;6.70;;
25854;SDS011;13680;49.936;11.344;2023-05-07T00:20:02;7.22;;;6.15;;
25854;SDS011;13680;49.936;11.344;2023-05-07T00:22:29;6.88;;;6.03;;
25854;SDS011;13680;49.936;11.344;2023-05-07T00:24:56;12.82;;;6.68;;
25854;SDS011;13680;49.936;11.344;2023-05-07T00:27:21;11.68;;;6.68;;
25854;SDS011;13680;49.936;11.344;2023-05-07T00:29:47;9.95;;;6.97;;
25854;SDS011;13680;49.936;11.344;2023-05-07T00:32:12;6.65;;;5.95;;
25854;SDS011;13680;49.936;11.344;2023-05-07T00:34:38;8.52;;;6.28;;
25854;SDS011;13680;49.936;11.344;2023-05-07T00:37:04;7.70;;;5.68;;
25854;SDS011;13680;49.936;11.344;2023-05-07T00:39:29;9.25;;;6.38;;
25854;SDS011;13680;49.936;11.344;2023-05-07T00:41:55;8.32;;;6.60;;
25854;SDS011;13680;49.936;11.344;2023-05-07T00:44:20;9.77;;;6.97;;
25854;SDS011;13680;49.936;11.344;2023-05-07T00:46:45;15.55;;;8.05;;
25854;SDS011;13680;49.936;11.344;2023-05-07T00:49:13;12.10;;;7.32;;
25854;SDS011;13680;49.936;11.344;2023-05-07T00:51:39;11.57;;;6.75;;
25854;SDS011;13680;49.936;11.344;2023-05-07T00:54:04;12.80;;;6.95;;
25854;SDS011;13680;49.936;11.344;2023-05-07T00:56:30;15.77;;;7.55;;
25854;SDS011;13680;49.936;11.344;2023-05-07T00:58:56;11.85;;;7.10;;
25854;SDS011;13680;49.936;11.344;2023-05-07T01:01:22;13.13;;;7.50;;
25854;SDS011;13680;49.936;11.344;2023-05-07T01:03:47;12.07;;;7.22;;
25854;SDS011;13680;49.936;11.344;2023-05-07T01:06:13;8.63;;;6.70;;
25854;SDS011;13680;49.936;11.344;2023-05-07T01:08:41;9.73;;;7.18;;
25854;SDS011;13680;49.936;11.344;2023-05-07T01:11:08;10.95;;;6.80;;
25854;SDS011;13680;49.936;11.344;2023-05-07T01:13:34;10.05;;;7.63;;
25854;SDS011;13680;49.936;11.344;2023-05-07T01:16:01;14.27;;;8.13;;
25854;SDS011;13680;49.936;11.344;2023-05-07T01:18:28;9.88;;;7.10;;
25854;SDS011;13680;49.936;11.344;2023-05-07T01:20:55;10.48;;;6.47;;
25854;SDS011;13680;49.936;11.344;2023-05-07T01:23:23;11.93;;;7.07;;
25854;SDS011;13680;49.936;11.344;2023-05-07T01:25:53;12.63;;;7.78;;
25854;SDS011;13680;49.936;11.344;2023-05-07T01:28:18;10.23;;;7.18;;
25854;SDS011;13680;49.936;11.344;2023-05-07T01:30:45;12.90;;;7.10;;
25854;SDS011;13680;49.936;11.344;2023-05-07T01:33:13;8.57;;;6.80;;
25854;SDS011;13680;49.936;11.344;2023-05-07T01:35:45;9.23;;;6.53;;
25854;SDS011;13680;49.936;11.344;2023-05-07T01:38:12;10.32;;;6.68;;
25854;SDS011;13680;49.936;11.344;2023-05-07T01:40:38;16.75;;;7.40;;
25854;SDS011;13680;49.936;11.344;2023-05-07T01:43:03;12.80;;;8.27;;
25854;SDS011;13680;49.936;11.344;2023-05-07T01:45:30;10.75;;;7.18;;
25854;SDS011;13680;49.936;11.344;2023-05-07T01:47:57;10.48;;;6.40;;
25854;SDS011;13680;49.936;11.344;2023-05-07T01:50:23;10.02;;;7.15;;
25854;SDS011;13680;49.936;11.344;2023-05-07T01:52:50;8.05;;;6.22;;
25854;SDS011;13680;49.936;11.344;2023-05-07T01:55:16;8.30;;;6.85;;
25854;SDS011;13680;49.936;11.344;2023-05-07T01:57:41;10.70;;;7.05;;
25854;SDS011;13680;49.936;11.344;2023-05-07T02:00:06;10.20;;;7.00;;
25854;SDS011;13680;49.936;11.344;2023-05-07T02:02:33;13.82;;;7.88;;
25854;SDS011;13680;49.936;11.344;2023-05-07T02:04:59;10.73;;;7.20;;
25854;SDS011;13680;49.936;11.344;2023-05-07T02:07:26;10.52;;;6.60;;
25854;SDS011;13680;49.936;11.344;2023-05-07T02:09:51;8.35;;;6.65;;
25854;SDS011;13680;49.936;11.344;2023-05-07T02:12:17;9.68;;;6.78;;
25854;SDS011;13680;49.936;11.344;2023-05-07T02:14:42;8.02;;;6.80;;
25854;SDS011;13680;49.936;11.344;2023-05-07T02:17:07;12.02;;;7.32;;
25854;SDS011;13680;49.936;11.344;2023-05-07T02:19:33;10.70;;;7.68;;
25854;SDS011;13680;49.936;11.344;2023-05-07T02:21:58;12.77;;;8.23;;
25854;SDS011;13680;49.936;11.344;2023-05-07T02:24:23;11.40;;;7.40;;
25854;SDS011;13680;49.936;11.344;2023-05-07T02:26:49;9.98;;;8.10;;
25854;SDS011;13680;49.936;11.344;2023-05-07T02:29:14;14.43;;;8.18;;
25854;SDS011;13680;49.936;11.344;2023-05-07T02:31:39;10.77;;;8.02;;
25854;SDS011;13680;49.936;11.344;2023-05-07T02:34:05;11.55;;;7.68;;
25854;SDS011;13680;49.936;11.344;2023-05-07T02:36:30;15.40;;;8.18;;
25854;SDS011;13680;49.936;11.344;2023-05-07T02:38:56;12.95;;;7.38;;
25854;SDS011;13680;49.936;11.344;2023-05-07T02:41:21;14.00;;;7.95;;
25854;SDS011;13680;49.936;11.344;2023-05-07T02:43:46;13.25;;;7.82;;
25854;SDS011;13680;49.936;11.344;2023-05-07T02:46:11;16.10;;;8.05;;
25854;SDS011;13680;49.936;11.344;2023-05-07T02:48:37;11.00;;;6.95;;
25854;SDS011;13680;49.936;11.344;2023-05-07T02:51:03;8.90;;;7.15;;
25854;SDS011;13680;49.936;11.344;2023-05-07T02:53:29;12.38;;;8.43;;
25854;SDS011;13680;49.936;11.344;2023-05-07T02:55:58;10.35;;;7.82;;
25854;SDS011;13680;49.936;11.344;2023-05-07T02:58:24;13.82;;;9.05;;
25854;SDS011;13680;49.936;11.344;2023-05-07T03:00:50;14.40;;;8.40;;
25854;SDS011;13680;49.936;11.344;2023-05-07T03:03:15;17.58;;;8.70;;
25854;SDS011;13680;49.936;11.344;2023-05-07T03:05:41;12.85;;;8.60;;
25854;SDS011;13680;49.936;11.344;2023-05-07T03:08:07;11.88;;;8.38;;
25854;SDS011;13680;49.936;11.344;2023-05-07T03:10:33;11.82;;;8.93;;
25854;SDS011;13680;49.936;11.344;2023-05-07T03:12:59;10.43;;;8.32;;
25854;SDS011;13680;49.936;11.344;2023-05-07T03:15:24;13.85;;;8.35;;
25854;SDS011;13680;49.936;11.344;2023-05-07T03:17:50;12.85;;;9.18;;
25854;SDS011;13680;49.936;11.344;2023-05-07T03:20:15;13.65;;;8.63;;
25854;SDS011;13680;49.936;11.344;2023-05-07T03:22:41;10.25;;;8.07;;
25854;SDS011;13680;49.936;11.344;2023-05-07T03:25:06;11.00;;;8.45;;
25854;SDS011;13680;49.936;11.344;2023-05-07T03:27:32;15.48;;;9.63;;
25854;SDS011;13680;49.936;11.344;2023-05-07T03:29:58;11.90;;;8.75;;
25854;SDS011;13680;49.936;11.344;2023-05-07T03:32:23;13.50;;;9.00;;
25854;SDS011;13680;49.936;11.344;2023-05-07T03:34:49;14.40;;;10.27;;
25854;SDS011;13680;49.936;11.344;2023-05-07T03:37:15;13.13;;;9.70;;
25854;SDS011;13680;49.936;11.344;2023-05-07T03:39:40;12.07;;;8.75;;
25854;SDS011;13680;49.936;11.344;2023-05-07T03:42:05;14.55;;;8.75;;
25854;SDS011;13680;49.936;11.344;2023-05-07T03:44:31;13.15;;;8.60;;
25854;SDS011;13680;49.936;11.344;2023-05-07T03:46:56;16.65;;;8.82;;
25854;SDS011;13680;49.936;11.344;2023-05-07T03:49:21;13.65;;;9.52;;
25854;SDS011;13680;49.936;11.344;2023-05-07T03:51:47;12.27;;;8.82;;
25854;SDS011;13680;49.936;11.344;2023-05-07T03:54:12;12.98;;;8.52;;
25854;SDS011;13680;49.936;11.344;2023-05-07T03:56:38;16.00;;;9.10;;
25854;SDS011;13680;49.936;11.344;2023-05-07T03:59:03;12.32;;;9.10;;
25854;SDS011;13680;49.936;11.344;2023-05-07T04:01:28;15.32;;;8.75;;
25854;SDS011;13680;49.936;11.344;2023-05-07T04:03:54;16.30;;;10.30;;
25854;SDS011;13680;49.936;11.344;2023-05-07T04:06:19;11.80;;;9.57;;
25854;SDS011;13680;49.936;11.344;2023-05-07T04:08:44;13.25;;;10.63;;
25854;SDS011;13680;49.936;11.344;2023-05-07T04:11:10;11.80;;;9.60;;
25854;SDS011;13680;49.936;11.344;2023-05-07T04:13:35;12.52;;;9.82;;
25854;SDS011;13680;49.936;11.344;2023-05-07T04:16:01;14.35;;;10.43;;
25854;SDS011;13680;49.936;11.344;2023-05-07T04:18:27;12.18;;;9.35;;
25854;SDS011;13680;49.936;11.344;2023-05-07T04:20:53;14.20;;;9.40;;
25854;SDS011;13680;49.936;11.344;2023-05-07T04:23:19;12.85;;;9.00;;
25854;SDS011;13680;49.936;11.344;2023-05-07T04:25:44;15.02;;;9.85;;
25854;SDS011;13680;49.936;11.344;2023-05-07T04:28:10;11.23;;;9.55;;
25854;SDS011;13680;49.936;11.344;2023-05-07T04:30:36;10.77;;;8.88;;
25854;SDS011;13680;49.936;11.344;2023-05-07T04:33:02;11.77;;;9.40;;
25854;SDS011;13680;49.936;11.344;2023-05-07T04:35:27;15.70;;;10.15;;
25854;SDS011;13680;49.936;11.344;2023-05-07T04:37:53;16.20;;;10.13;;
25854;SDS011;13680;49.936;11.344;2023-05-07T04:40:18;13.35;;;9.20;;
25854;SDS011;13680;49.936;11.344;2023-05-07T04:42:43;13.38;;;9.32;;
25854;SDS011;13680;49.936;11.344;2023-05-07T04:45:09;16.33;;;10.20;;
25854;SDS011;13680;49.936;11.344;2023-05-07T04:47:35;14.00;;;9.30;;
25854;SDS011;13680;49.936;11.344;2023-05-07T04:50:01;13.25;;;9.75;;
25854;SDS011;13680;49.936;11.344;2023-05-07T04:52:26;14.40;;;10.18;;
25854;SDS011;13680;49.936;11.344;2023-05-07T04:54:52;19.80;;;10.98;;
25854;SDS011;13680;49.936;11.344;2023-05-07T04:57:17;11.93;;;9.77;;
25854;SDS011;13680;49.936;11.344;2023-05-07T04:59:43;14.60;;;9.57;;
25854;SDS011;13680;49.936;11.344;2023-05-07T05:02:09;15.45;;;9.25;;
25854;SDS011;13680;49.936;11.344;2023-05-07T05:04:35;12.38;;;9.20;;
25854;SDS011;13680;49.936;11.344;2023-05-07T05:07:01;12.32;;;9.23;;
25854;SDS011;13680;49.936;11.344;2023-05-07T05:09:28;12.10;;;8.63;;
25854;SDS011;13680;49.936;11.344;2023-05-07T05:11:54;15.63;;;8.85;;
25854;SDS011;13680;49.936;11.344;2023-05-07T05:14:19;10.40;;;8.32;;
25854;SDS011;13680;49.936;11.344;2023-05-07T05:16:44;13.48;;;8.15;;
25854;SDS011;13680;49.936;11.344;2023-05-07T05:19:10;9.93;;;8.40;;
25854;SDS011;13680;49.936;11.344;2023-05-07T05:21:35;15.77;;;8.77;;
25854;SDS011;13680;49.936;11.344;2023-05-07T05:24:01;12.50;;;8.73;;
25854;SDS011;13680;49.936;11.344;2023-05-07T05:26:26;13.95;;;8.57;;
25854;SDS011;13680;49.936;11.344;2023-05-07T05:28:51;18.83;;;8.88;;
25854;SDS011;13680;49.936;11.344;2023-05-07T05:31:17;11.73;;;8.00;;
25854;SDS011;13680;49.936;11.344;2023-05-07T05:33:42;10.48;;;8.80;;
25854;SDS011;13680;49.936;11.344;2023-05-07T05:36:10;9.77;;;8.57;;
25854;SDS011;13680;49.936;11.344;2023-05-07T05:38:37;12.05;;;8.77;;
25854;SDS011;13680;49.936;11.344;2023-05-07T05:41:03;12.30;;;8.48;;
25854;SDS011;13680;49.936;11.344;2023-05-07T05:43:28;11.55;;;8.77;;
25854;SDS011;13680;49.936;11.344;2023-05-07T05:45:55;12.52;;;8.75;;
25854;SDS011;13680;49.936;11.344;2023-05-07T05:48:20;10.85;;;9.10;;
25854;SDS011;13680;49.936;11.344;2023-05-07T05:50:46;12.75;;;8.85;;
25854;SDS011;13680;49.936;11.344;2023-05-07T05:53:11;14.35;;;10.52;;
25854;SDS011;13680;49.936;11.344;2023-05-07T05:55:36;12.35;;;9.18;;
25854;SDS011;13680;49.936;11.344;2023-05-07T05:58:02;12.80;;;9.02;;
25854;SDS011;13680;49.936;11.344;2023-05-07T06:00:27;12.77;;;10.07;;
25854;SDS011;13680;49.936;11.344;2023-05-07T06:02:53;13.95;;;9.48;;
25854;SDS011;13680;49.936;11.344;2023-05-07T06:05:18;13.75;;;8.75;;
25854;SDS011;13680;49.936;11.344;2023-05-07T06:07:43;13.68;;;8.80;;
25854;SDS011;13680;49.936;11.344;2023-05-07T06:10:09;11.77;;;9.52;;
25854;SDS011;13680;49.936;11.344;2023-05-07T06:12:35;13.18;;;9.30;;
25854;SDS011;13680;49.936;11.344;2023-05-07T06:15:00;11.70;;;8.15;;
25854;SDS011;13680;49.936;11.344;2023-05-07T06:17:26;13.88;;;8.43;;
25854;SDS011;13680;49.936;11.344;2023-05-07T06:19:52;11.60;;;8.63;;
25854;SDS011;13680;49.936;11.344;2023-05-07T06:22:17;12.30;;;8.63;;
25854;SDS011;13680;49.936;11.344;2023-05-07T06:24:42;12.65;;;9.45;;
25854;SDS011;13680;49.936;11.344;2023-05-07T06:27:08;12.70;;;9.98;;
25854;SDS011;13680;49.936;11.344;2023-05-07T06:29:33;14.20;;;10.23;;
25854;SDS011;13680;49.936;11.344;2023-05-07T06:32:08;12.93;;;10.13;;
25854;SDS011;13680;49.936;11.344;2023-05-07T06:34:35;13.48;;;10.57;;
25854;SDS011;13680;49.936;11.344;2023-05-07T06:37:00;13.25;;;9.70;;
25854;SDS011;13680;49.936;11.344;2023-05-07T06:39:26;12.38;;;9.18;;
25854;SDS011;13680;49.936;11.344;2023-05-07T06:41:51;11.48;;;9.15;;
25854;SDS011;13680;49.936;11.344;2023-05-07T06:44:17;14.50;;;9.55;;
25854;SDS011;13680;49.936;11.344;2023-05-07T06:46:42;13.20;;;9.48;;
25854;SDS011;13680;49.936;11.344;2023-05-07T06:49:08;11.35;;;8.73;;
25854;SDS011;13680;49.936;11.344;2023-05-07T06:51:33;11.15;;;8.65;;
25854;SDS011;13680;49.936;11.344;2023-05-07T06:53:58;15.65;;;9.50;;
25854;SDS011;13680;49.936;11.344;2023-05-07T06:56:24;13.05;;;9.52;;
25854;SDS011;13680;49.936;11.344;2023-05-07T06:58:50;11.10;;;8.88;;
25854;SDS011;13680;49.936;11.344;2023-05-07T07:01:15;12.90;;;8.48;;
25854;SDS011;13680;49.936;11.344;2023-05-07T07:03:41;10.75;;;8.93;;
25854;SDS011;13680;49.936;11.344;2023-05-07T07:06:06;14.00;;;9.45;;
25854;SDS011;13680;49.936;11.344;2023-05-07T07:08:32;15.32;;;9.70;;
25854;SDS011;13680;49.936;11.344;2023-05-07T07:10:57;13.45;;;8.90;;
25854;SDS011;13680;49.936;11.344;2023-05-07T07:13:23;10.85;;;8.60;;
25854;SDS011;13680;49.936;11.344;2023-05-07T07:15:48;12.40;;;8.93;;
25854;SDS011;13680;49.936;11.344;2023-05-07T07:18:14;10.88;;;9.27;;
25854;SDS011;13680;49.936;11.344;2023-05-07T07:20:39;11.65;;;9.32;;
25854;SDS011;13680;49.936;11.344;2023-05-07T07:23:04;15.60;;;9.38;;
25854;SDS011;13680;49.936;11.344;2023-05-07T07:25:30;11.32;;;8.70;;
25854;SDS011;13680;49.936;11.344;2023-05-07T07:27:55;13.77;;;9.82;;
25854;SDS011;13680;49.936;11.344;2023-05-07T07:30:21;15.90;;;10.27;;
25854;SDS011;13680;49.936;11.344;2023-05-07T07:32:46;14.60;;;10.45;;
25854;SDS011;13680;49.936;11.344;2023-05-07T07:35:11;13.77;;;10.25;;
25854;SDS011;13680;49.936;11.344;2023-05-07T07:37:37;13.43;;;9.15;;
25854;SDS011;13680;49.936;11.344;2023-05-07T07:40:02;13.25;;;9.07;;
25854;SDS011;13680;49.936;11.344;2023-05-07T07:42:28;14.18;;;9.40;;
25854;SDS011;13680;49.936;11.344;2023-05-07T07:44:54;16.75;;;10.40;;
25854;SDS011;13680;49.936;11.344;2023-05-07T07:47:19;13.93;;;9.55;;
25854;SDS011;13680;49.936;11.344;2023-05-07T07:49:45;14.35;;;9.05;;
25854;SDS011;13680;49.936;11.344;2023-05-07T07:52:10;12.13;;;9.32;;
25854;SDS011;13680;49.936;11.344;2023-05-07T07:54:35;13.98;;;10.10;;
25854;SDS011;13680;49.936;11.344;2023-05-07T07:57:01;15.40;;;9.38;;
25854;SDS011;13680;49.936;11.344;2023-05-07T07:59:26;11.07;;;9.32;;
25854;SDS011;13680;49.936;11.344;2023-05-07T08:01:52;12.55;;;9.95;;
25854;SDS011;13680;49.936;11.344;2023-05-07T08:04:20;13.77;;;10.02;;
25854;SDS011;13680;49.936;11.344;2023-05-07T08:06:46;14.93;;;9.05;;
25854;SDS011;13680;49.936;11.344;2023-05-07T08:09:11;15.05;;;9.57;;
25854;SDS011;13680;49.936;11.344;2023-05-07T08:11:36;11.70;;;9.60;;
25854;SDS011;13680;49.936;11.344;2023-05-07T08:14:02;11.75;;;8.77;;
25854;SDS011;13680;49.936;11.344;2023-05-07T08:16:28;12.13;;;9.30;;
25854;SDS011;13680;49.936;11.344;2023-05-07T08:18:53;11.75;;;8.95;;
25854;SDS011;13680;49.936;11.344;2023-05-07T08:21:19;11.05;;;8.50;;
25854;SDS011;13680;49.936;11.344;2023-05-07T08:23:45;11.77;;;9.02;;
25854;SDS011;13680;49.936;11.344;2023-05-07T08:26:10;12.95;;;9.43;;
25854;SDS011;13680;49.936;11.344;2023-05-07T08:28:36;13.07;;;9.48;;
25854;SDS011;13680;49.936;11.344;2023-05-07T08:31:01;10.90;;;9.10;;
25854;SDS011;13680;49.936;11.344;2023-05-07T08:33:27;12.20;;;8.52;;
25854;SDS011;13680;49.936;11.344;2023-05-07T08:35:52;14.73;;;9.35;;
25854;SDS011;13680;49.936;11.344;2023-05-07T08:38:17;11.05;;;8.45;;
25854;SDS011;13680;49.936;11.344;2023-05-07T08:40:43;12.52;;;8.90;;
25854;SDS011;13680;49.936;11.344;2023-05-07T08:43:08;13.27;;;8.98;;
25854;SDS011;13680;49.936;11.344;2023-05-07T08:45:37;12.60;;;9.00;;
25854;SDS011;13680;49.936;11.344;2023-05-07T08:48:08;10.80;;;8.82;;
25854;SDS011;13680;49.936;11.344;2023-05-07T08:50:39;11.63;;;8.85;;
25854;SDS011;13680;49.936;11.344;2023-05-07T08:53:04;11.60;;;9.40;;
25854;SDS011;13680;49.936;11.344;2023-05-07T08:55:30;11.07;;;8.68;;
25854;SDS011;13680;49.936;11.344;2023-05-07T08:57:56;11.82;;;8.35;;
25854;SDS011;13680;49.936;11.344;2023-05-07T09:00:21;17.75;;;8.43;;
25854;SDS011;13680;49.936;11.344;2023-05-07T09:02:47;10.35;;;7.82;;
25854;SDS011;13680;49.936;11.344;2023-05-07T09:05:13;11.77;;;8.80;;
25854;SDS011;13680;49.936;11.344;2023-05-07T09:07:39;10.65;;;8.20;;
25854;SDS011;13680;49.936;11.344;2023-05-07T09:10:04;12.57;;;9.15;;
25854;SDS011;13680;49.936;11.344;2023-05-07T09:12:30;10.93;;;7.68;;
25854;SDS011;13680;49.936;11.344;2023-05-07T09:14:56;11.65;;;9.38;;
25854;SDS011;13680;49.936;11.344;2023-05-07T09:17:21;13.10;;;8.60;;
25854;SDS011;13680;49.936;11.344;2023-05-07T09:19:46;11.98;;;8.60;;
25854;SDS011;13680;49.936;11.344;2023-05-07T09:22:12;10.88;;;8.23;;
25854;SDS011;13680;49.936;11.344;2023-05-07T09:24:38;12.23;;;7.90;;
25854;SDS011;13680;49.936;11.344;2023-05-07T09:27:03;10.35;;;8.48;;
25854;SDS011;13680;49.936;11.344;2023-05-07T09:29:30;12.80;;;8.18;;
25854;SDS011;13680;49.936;11.344;2023-05-07T09:32:01;10.18;;;8.00;;
25854;SDS011;13680;49.936;11.344;2023-05-07T09:34:28;15.75;;;8.55;;
25854;SDS011;13680;49.936;11.344;2023-05-07T09:36:54;11.20;;;7.82;;
25854;SDS011;13680;49.936;11.344;2023-05-07T09:39:19;11.02;;;8.88;;
25854;SDS011;13680;49.936;11.344;2023-05-07T09:41:48;10.25;;;8.15;;
25854;SDS011;13680;49.936;11.344;2023-05-07T09:44:14;12.30;;;8.43;;
25854;SDS011;13680;49.936;11.344;2023-05-07T09:46:41;9.10;;;7.85;;
25854;SDS011;13680;49.936;11.344;2023-05-07T09:49:11;11.30;;;8.02;;
25854;SDS011;13680;49.936;11.344;2023-05-07T09:51:43;10.48;;;7.63;;
25854;SDS011;13680;49.936;11.344;2023-05-07T09:54:13;9.98;;;8.10;;
25854;SDS011;13680;49.936;11.344;2023-05-07T09:56:39;11.02;;;7.53;;
25854;SDS011;13680;49.936;11.344;2023-05-07T09:59:06;9.15;;;7.85;;
25854;SDS011;13680;49.936;11.344;2023-05-07T10:01:32;10.90;;;7.50;;
25854;SDS011;13680;49.936;11.344;2023-05-07T10:03:58;11.45;;;8.00;;
25854;SDS011;13680;49.936;11.344;2023-05-07T10:06:24;11.65;;;7.72;;
25854;SDS011;13680;49.936;11.344;2023-05-07T10:08:51;10.40;;;7.35;;
25854;SDS011;13680;49.936;11.344;2023-05-07T10:11:17;12.30;;;8.90;;
25854;SDS011;13680;49.936;11.344;2023-05-07T10:13:43;11.00;;;8.55;;
25854;SDS011;13680;49.936;11.344;2023-05-07T10:16:11;8.98;;;7.07;;
25854;SDS011;13680;49.936;11.344;2023-05-07T10:18:37;12.10;;;8.18;;
25854;SDS011;13680;49.936;11.344;2023-05-07T10:21:07;11.00;;;6.63;;
25854;SDS011;13680;49.936;11.344;2023-05-07T10:23:36;8.43;;;6.57;;
25854;SDS011;13680;49.936;11.344;2023-05-07T10:26:04;9.77;;;6.60;;
25854;SDS011;13680;49.936;11.344;2023-05-07T10:28:32;9.20;;;6.88;;
25854;SDS011;13680;49.936;11.344;2023-05-07T10:33:42;11.88;;;7.25;;
25854;SDS011;13680;49.936;11.344;2023-05-07T10:36:11;8.02;;;7.18;;
25854;SDS011;13680;49.936;11.344;2023-05-07T10:38:37;8.98;;;7.13;;
25854;SDS011;13680;49.936;11.344;2023-05-07T10:41:04;7.45;;;6.10;;
25854;SDS011;13680;49.936;11.344;2023-05-07T10:43:39;8.45;;;6.32;;
25854;SDS011;13680;49.936;11.344;2023-05-07T10:46:16;7.75;;;6.05;;
25854;SDS011;13680;49.936;11.344;2023-05-07T10:51:37;5.70;;;5.10;;
25854;SDS011;13680;49.936;11.344;2023-05-07T10:56:35;9.25;;;4.53;;
25854;SDS011;13680;49.936;11.344;2023-05-07T10:59:38;6.88;;;5.63;;
25854;SDS011;13680;49.936;11.344;2023-05-07T11:02:02;6.82;;;5.30;;
25854;SDS011;13680;49.936;11.344;2023-05-07T11:04:29;6.13;;;5.53;;
25854;SDS011;13680;49.936;11.344;2023-05-07T11:13:02;7.72;;;5.65;;
25854;SDS011;13680;49.936;11.344;2023-05-07T11:17:28;8.37;;;5.23;;
25854;SDS011;13680;49.936;11.344;2023-05-07T11:19:56;11.40;;;4.93;;
25854;SDS011;13680;49.936;11.344;2023-05-07T11:22:35;11.05;;;5.25;;
25854;SDS011;13680;49.936;11.344;2023-05-07T11:25:05;6.22;;;4.78;;
25854;SDS011;13680;49.936;11.344;2023-05-07T11:27:32;5.45;;;4.57;;
25854;SDS011;13680;49.936;11.344;2023-05-07T11:29:58;6.70;;;4.22;;
25854;SDS011;13680;49.936;11.344;2023-05-07T11:32:24;6.72;;;4.82;;
25854;SDS011;13680;49.936;11.344;2023-05-07T11:34:57;6.20;;;4.25;;
25854;SDS011;13680;49.936;11.344;2023-05-07T11:37:24;6.15;;;3.63;;
25854;SDS011;13680;49.936;11.344;2023-05-07T11:39:51;4.93;;;3.58;;
25854;SDS011;13680;49.936;11.344;2023-05-07T11:42:36;4.25;;;3.60;;
25854;SDS011;13680;49.936;11.344;2023-05-07T11:45:03;6.63;;;3.97;;
25854;SDS011;13680;49.936;11.344;2023-05-07T11:47:32;5.15;;;3.92;;
25854;SDS011;13680;49.936;11.344;2023-05-07T11:50:01;5.18;;;4.05;;
25854;SDS011;13680;49.936;11.344;2023-05-07T11:52:28;5.00;;;3.95;;
25854;SDS011;13680;49.936;11.344;2023-05-07T11:54:55;5.70;;;3.75;;
25854;SDS011;13680;49.936;11.344;2023-05-07T11:57:24;3.88;;;3.47;;
25854;SDS011;13680;49.936;11.344;2023-05-07T11:59:56;4.25;;;3.33;;
25854;SDS011;13680;49.936;11.344;2023-05-07T12:02:22;4.30;;;3.72;;
25854;SDS011;13680;49.936;11.344;2023-05-07T12:04:49;5.05;;;3.75;;
25854;SDS011;13680;49.936;11.344;2023-05-07T12:07:18;4.95;;;3.20;;
25854;SDS011;13680;49.936;11.344;2023-05-07T12:09:44;4.82;;;3.67;;
25854;SDS011;13680;49.936;11.344;2023-05-07T12:12:10;4.50;;;3.45;;
25854;SDS011;13680;49.936;11.344;2023-05-07T12:14:40;4.95;;;3.03;;
25854;SDS011;13680;49.936;11.344;2023-05-07T12:17:09;3.90;;;2.88;;
25854;SDS011;13680;49.936;11.344;2023-05-07T12:19:36;4.03;;;3.03;;
25854;SDS011;13680;49.936;11.344;2023-05-07T12:22:03;3.40;;;2.80;;
25854;SDS011;13680;49.936;11.344;2023-05-07T12:24:28;5.53;;;3.83;;
25854;SDS011;13680;49.936;11.344;2023-05-07T12:26:54;4.88;;;3.65;;
25854;SDS011;13680;49.936;11.344;2023-05-07T12:29:22;5.30;;;3.95;;
25854;SDS011;13680;49.936;11.344;2023-05-07T12:31:49;4.05;;;3.40;;
25854;SDS011;13680;49.936;11.344;2023-05-07T12:34:15;5.32;;;4.05;;
25854;SDS011;13680;49.936;11.344;2023-05-07T12:36:40;5.45;;;4.03;;
25854;SDS011;13680;49.936;11.344;2023-05-07T12:39:06;5.13;;;3.50;;
25854;SDS011;13680;49.936;11.344;2023-05-07T12:41:35;6.97;;;4.43;;
25854;SDS011;13680;49.936;11.344;2023-05-07T12:44:17;5.22;;;3.45;;
25854;SDS011;13680;49.936;11.344;2023-05-07T12:46:42;5.53;;;3.70;;
25854;SDS011;13680;49.936;11.344;2023-05-07T12:49:07;4.13;;;3.42;;
25854;SDS011;13680;49.936;11.344;2023-05-07T12:51:34;5.90;;;3.95;;
25854;SDS011;13680;49.936;11.344;2023-05-07T12:54:00;4.75;;;3.50;;
25854;SDS011;13680;49.936;11.344;2023-05-07T12:56:25;5.82;;;3.28;;
25854;SDS011;13680;49.936;11.344;2023-05-07T12:58:51;5.05;;;3.50;;
25854;SDS011;13680;49.936;11.344;2023-05-07T13:01:16;5.50;;;3.92;;
25854;SDS011;13680;49.936;11.344;2023-05-07T13:03:47;3.67;;;3.25;;
25854;SDS011;13680;49.936;11.344;2023-05-07T13:06:13;4.68;;;3.08;;
25854;SDS011;13680;49.936;11.344;2023-05-07T13:08:39;6.22;;;3.28;;
25854;SDS011;13680;49.936;11.344;2023-05-07T13:11:08;4.88;;;3.30;;
25854;SDS011;13680;49.936;11.344;2023-05-07T13:13:36;4.80;;;3.38;;
25854;SDS011;13680;49.936;11.344;2023-05-07T13:16:03;2.97;;;2.55;;
25854;SDS011;13680;49.936;11.344;2023-05-07T13:18:30;6.38;;;2.85;;
25854;SDS011;13680;49.936;11.344;2023-05-07T13:20:56;3.70;;;3.00;;
25854;SDS011;13680;49.936;11.344;2023-05-07T13:23:22;3.22;;;2.65;;
25854;SDS011;13680;49.936;11.344;2023-05-07T13:25:47;3.53;;;2.67;;
25854;SDS011;13680;49.936;11.344;2023-05-07T13:28:14;3.03;;;2.40;;
25854;SDS011;13680;49.936;11.344;2023-05-07T13:30:39;2.72;;;2.10;;
25854;SDS011;13680;49.936;11.344;2023-05-07T13:33:05;2.97;;;2.03;;
25854;SDS011;13680;49.936;11.344;2023-05-07T13:35:31;5.90;;;2.30;;
25854;SDS011;13680;49.936;11.344;2023-05-07T13:37:57;3.88;;;1.52;;
25854;SDS011;13680;49.936;11.344;2023-05-07T13:40:22;3.13;;;1.75;;
25854;SDS011;13680;49.936;11.344;2023-05-07T13:42:48;3.03;;;2.10;;
25854;SDS011;13680;49.936;11.344;2023-05-07T13:45:14;2.03;;;1.70;;
25854;SDS011;13680;49.936;11.344;2023-05-07T13:47:40;3.97;;;1.95;;
25854;SDS011;13680;49.936;11.344;2023-05-07T13:50:07;3.22;;;1.85;;
25854;SDS011;13680;49.936;11.344;2023-05-07T13:52:33;3.05;;;1.92;;
25854;SDS011;13680;49.936;11.344;2023-05-07T13:54:58;1.77;;;1.50;;
25854;SDS011;13680;49.936;11.344;2023-05-07T13:57:24;4.65;;;1.90;;
25854;SDS011;13680;49.936;11.344;2023-05-07T13:59:49;2.47;;;1.98;;
25854;SDS011;13680;49.936;11.344;2023-05-07T14:02:15;2.72;;;2.25;;
25854;SDS011;13680;49.936;11.344;2023-05-07T14:04:40;2.50;;;2.22;;
25854;SDS011;13680;49.936;11.344;2023-05-07T14:07:06;4.20;;;2.40;;
25854;SDS011;13680;49.936;11.344;2023-05-07T14:09:31;4.63;;;2.45;;
25854;SDS011;13680;49.936;11.344;2023-05-07T14:11:57;4.47;;;2.63;;
25854;SDS011;13680;49.936;11.344;2023-05-07T14:14:22;3.95;;;2.22;;
25854;SDS011;13680;49.936;11.344;2023-05-07T14:16:47;4.80;;;2.58;;
25854;SDS011;13680;49.936;11.344;2023-05-07T14:19:13;5.32;;;2.47;;
25854;SDS011;13680;49.936;11.344;2023-05-07T14:21:38;4.82;;;2.67;;
25854;SDS011;13680;49.936;11.344;2023-05-07T14:24:03;2.50;;;2.30;;
25854;SDS011;13680;49.936;11.344;2023-05-07T14:26:31;4.57;;;2.58;;
25854;SDS011;13680;49.936;11.344;2023-05-07T14:28:56;3.33;;;2.78;;
25854;SDS011;13680;49.936;11.344;2023-05-07T14:31:23;3.88;;;2.60;;
25854;SDS011;13680;49.936;11.344;2023-05-07T14:33:48;5.50;;;2.63;;
25854;SDS011;13680;49.936;11.344;2023-05-07T14:36:15;5.13;;;2.42;;